PWSweather.com
Personal Weather Stations
Station Observations
SUBOTICARS
SuboticaYU

SuboticaYU

Lat: 46.1296717, Lon: 19.641551

Elevation: 361

Station Type: Nexus

http://sumeteo.info

High Low Average
Temperature 37.2°F2.9°C 25.0°F-3.9°C 31.8°F-0.1°C
Dew Point 32.0°F0.0°C 14.2°F-9.9°C 24.4°F-4.2°C
Winds 11.5 mph 18.5 kmh Calm Calm 5.0 mph SW8.0 kmh SW
Wind Gusts 16.1 mph25.9 kmh 1.2 mph1.9 kmh 6.0 mph9.7 kmh
Humidity 95% 58% 75%
Pressure 29.88 in1011.9 mb 29.59 in1002.0 mb -
Precipitation 0.00 in0.0 mm - -
Hour Temp Dew Point Humidity Winds Wind Gusts Pressure Precip Precip Rate Daily Precip Total
12:00 AM 33.6°F0.9°C 32.0°F0.0°C 94% 3.5 mph NNE5.6 kmh NNE 5.8 mph9.3 kmh 29.59 in1002.0 mb - 0.00 in0.0 mm 0.00 in0.0 mm
12:10 AM 33.4°F0.8°C 31.9°F-0.1°C 94% 3.5 mph N5.6 kmh N 5.8 mph9.3 kmh 29.59 in1002.0 mb - 0.00 in0.0 mm 0.00 in0.0 mm
12:15 AM 33.4°F0.8°C 31.9°F-0.1°C 94% 3.5 mph NNE5.6 kmh NNE 4.6 mph7.4 kmh 29.59 in1002.0 mb - 0.00 in0.0 mm 0.00 in0.0 mm
12:20 AM 33.3°F0.7°C 31.7°F-0.2°C 94% 5.8 mph NE9.3 kmh NE 4.6 mph7.4 kmh 29.60 in1002.4 mb - 0.00 in0.0 mm 0.00 in0.0 mm
12:25 AM 33.3°F0.7°C 31.7°F-0.2°C 94% 4.6 mph N7.4 kmh N 5.8 mph9.3 kmh 29.60 in1002.4 mb - 0.00 in0.0 mm 0.00 in0.0 mm
12:30 AM 33.3°F0.7°C 31.7°F-0.2°C 94% 3.5 mph N5.6 kmh N 5.8 mph9.3 kmh 29.60 in1002.4 mb - 0.00 in0.0 mm 0.00 in0.0 mm
12:35 AM 33.3°F0.7°C 31.7°F-0.2°C 94% 3.5 mph N5.6 kmh N 4.6 mph7.4 kmh 29.60 in1002.4 mb - 0.00 in0.0 mm 0.00 in0.0 mm
12:40 AM 33.3°F0.7°C 32.0°F0.0°C 95% 4.6 mph NNE7.4 kmh NNE 6.9 mph11.1 kmh 29.60 in1002.4 mb - 0.00 in0.0 mm 0.00 in0.0 mm
12:45 AM 33.3°F0.7°C 32.0°F0.0°C 95% 3.5 mph NNE5.6 kmh NNE 3.5 mph5.6 kmh 29.60 in1002.4 mb - 0.00 in0.0 mm 0.00 in0.0 mm
12:50 AM 33.3°F0.7°C 32.0°F0.0°C 95% 3.5 mph N5.6 kmh N 3.5 mph5.6 kmh 29.60 in1002.4 mb - 0.00 in0.0 mm 0.00 in0.0 mm
12:55 AM 33.3°F0.7°C 31.7°F-0.2°C 94% 3.5 mph NNE5.6 kmh NNE 3.5 mph5.6 kmh 29.60 in1002.4 mb - 0.00 in0.0 mm 0.00 in0.0 mm
01:00 AM 33.1°F0.6°C 31.5°F-0.3°C 94% 3.5 mph NNE5.6 kmh NNE 4.6 mph7.4 kmh 29.60 in1002.4 mb - 0.00 in0.0 mm 0.00 in0.0 mm
01:10 AM 33.1°F0.6°C 31.5°F-0.3°C 94% 3.5 mph NNE5.6 kmh NNE 3.5 mph5.6 kmh 29.60 in1002.4 mb - 0.00 in0.0 mm 0.00 in0.0 mm
01:15 AM 33.1°F0.6°C 31.5°F-0.3°C 94% 3.5 mph NNW5.6 kmh NNW 3.5 mph5.6 kmh 29.60 in1002.4 mb - 0.00 in0.0 mm 0.00 in0.0 mm
01:20 AM 33.1°F0.6°C 31.5°F-0.3°C 94% 4.6 mph NNW7.4 kmh NNW 4.6 mph7.4 kmh 29.60 in1002.4 mb - 0.00 in0.0 mm 0.00 in0.0 mm
01:25 AM 32.9°F0.5°C 31.4°F-0.3°C 94% 3.5 mph NNW5.6 kmh NNW 4.6 mph7.4 kmh 29.60 in1002.4 mb - 0.00 in0.0 mm 0.00 in0.0 mm
01:30 AM 32.9°F0.5°C 31.4°F-0.3°C 94% 3.5 mph NNW5.6 kmh NNW 5.8 mph9.3 kmh 29.60 in1002.4 mb - 0.00 in0.0 mm 0.00 in0.0 mm
01:35 AM 32.9°F0.5°C 31.4°F-0.3°C 94% 4.6 mph NW7.4 kmh NW 4.6 mph7.4 kmh 29.60 in1002.4 mb - 0.00 in0.0 mm 0.00 in0.0 mm
01:40 AM 32.7°F0.4°C 31.2°F-0.4°C 94% 3.5 mph NW5.6 kmh NW 3.5 mph5.6 kmh 29.60 in1002.4 mb - 0.00 in0.0 mm 0.00 in0.0 mm
01:45 AM 32.7°F0.4°C 31.2°F-0.4°C 94% 2.3 mph NW3.7 kmh NW 3.5 mph5.6 kmh 29.60 in1002.4 mb - 0.00 in0.0 mm 0.00 in0.0 mm
01:50 AM 32.7°F0.4°C 31.2°F-0.4°C 94% 3.5 mph NNW5.6 kmh NNW 3.5 mph5.6 kmh 29.60 in1002.4 mb - 0.00 in0.0 mm 0.00 in0.0 mm
01:55 AM 32.7°F0.4°C 31.2°F-0.4°C 94% 3.5 mph NNW5.6 kmh NNW 2.3 mph3.7 kmh 29.60 in1002.4 mb - 0.00 in0.0 mm 0.00 in0.0 mm
02:00 AM 32.7°F0.4°C 31.2°F-0.4°C 94% 3.5 mph NW5.6 kmh NW 2.3 mph3.7 kmh 29.61 in1002.7 mb - 0.00 in0.0 mm 0.00 in0.0 mm
02:10 AM 32.7°F0.4°C 31.4°F-0.3°C 95% 3.5 mph NW5.6 kmh NW 3.5 mph5.6 kmh 29.62 in1003.0 mb - 0.00 in0.0 mm 0.00 in0.0 mm
02:15 AM 32.7°F0.4°C 31.4°F-0.3°C 95% 3.5 mph NNW5.6 kmh NNW 5.8 mph9.3 kmh 29.62 in1003.0 mb - 0.00 in0.0 mm 0.00 in0.0 mm
02:20 AM 32.7°F0.4°C 31.4°F-0.3°C 95% 4.6 mph NNW7.4 kmh NNW 5.8 mph9.3 kmh 29.62 in1003.0 mb - 0.00 in0.0 mm 0.00 in0.0 mm
02:25 AM 32.7°F0.4°C 31.4°F-0.3°C 95% 3.5 mph NW5.6 kmh NW 3.5 mph5.6 kmh 29.62 in1003.0 mb - 0.00 in0.0 mm 0.00 in0.0 mm
02:30 AM 32.5°F0.3°C 31.3°F-0.4°C 95% 3.5 mph NNW5.6 kmh NNW 3.5 mph5.6 kmh 29.62 in1003.0 mb - 0.00 in0.0 mm 0.00 in0.0 mm
02:35 AM 32.5°F0.3°C 31.3°F-0.4°C 95% 3.5 mph NNW5.6 kmh NNW 3.5 mph5.6 kmh 29.62 in1003.0 mb - 0.00 in0.0 mm 0.00 in0.0 mm
02:40 AM 32.5°F0.3°C 31.0°F-0.6°C 94% 2.3 mph NNW3.7 kmh NNW 3.5 mph5.6 kmh 29.62 in1003.0 mb - 0.00 in0.0 mm 0.00 in0.0 mm
02:45 AM 32.4°F0.2°C 30.8°F-0.7°C 94% 2.3 mph NNW3.7 kmh NNW 2.3 mph3.7 kmh 29.62 in1003.0 mb - 0.00 in0.0 mm 0.00 in0.0 mm
02:50 AM 32.5°F0.3°C 31.0°F-0.6°C 94% 3.5 mph NNW5.6 kmh NNW 4.6 mph7.4 kmh 29.62 in1003.0 mb - 0.00 in0.0 mm 0.00 in0.0 mm
02:55 AM 32.5°F0.3°C 31.0°F-0.6°C 94% 2.3 mph NNW3.7 kmh NNW 3.5 mph5.6 kmh 29.62 in1003.0 mb - 0.00 in0.0 mm 0.00 in0.0 mm
03:00 AM 32.5°F0.3°C 31.0°F-0.6°C 94% 2.3 mph NW3.7 kmh NW 3.5 mph5.6 kmh 29.62 in1003.0 mb - 0.00 in0.0 mm 0.00 in0.0 mm
03:10 AM 32.4°F0.2°C 30.8°F-0.7°C 94% 2.3 mph NNW3.7 kmh NNW 2.3 mph3.7 kmh 29.62 in1003.0 mb - 0.00 in0.0 mm 0.00 in0.0 mm
03:15 AM 32.4°F0.2°C 30.8°F-0.7°C 94% 1.2 mph NNW1.9 kmh NNW 1.2 mph1.9 kmh 29.62 in1003.0 mb - 0.00 in0.0 mm 0.00 in0.0 mm
03:20 AM 32.3°F0.2°C 30.7°F-0.7°C 94% 2.3 mph NW3.7 kmh NW 3.5 mph5.6 kmh 29.62 in1003.0 mb - 0.00 in0.0 mm 0.00 in0.0 mm
03:25 AM 32.2°F0.1°C 30.6°F-0.8°C 94% 2.3 mph NW3.7 kmh NW 2.3 mph3.7 kmh 29.62 in1003.0 mb - 0.00 in0.0 mm 0.00 in0.0 mm
03:30 AM 32.2°F0.1°C 30.6°F-0.8°C 94% 2.3 mph NW3.7 kmh NW 2.3 mph3.7 kmh 29.63 in1003.4 mb - 0.00 in0.0 mm 0.00 in0.0 mm
03:35 AM 32.2°F0.1°C 30.6°F-0.8°C 94% 1.2 mph WNW1.9 kmh WNW 2.3 mph3.7 kmh 29.63 in1003.4 mb - 0.00 in0.0 mm 0.00 in0.0 mm
03:40 AM 32.2°F0.1°C 30.6°F-0.8°C 94% 2.3 mph WNW3.7 kmh WNW 2.3 mph3.7 kmh 29.63 in1003.4 mb - 0.00 in0.0 mm 0.00 in0.0 mm
03:45 AM 32.0°F0.0°C 30.5°F-0.8°C 94% 1.2 mph NW1.9 kmh NW 2.3 mph3.7 kmh 29.63 in1003.4 mb - 0.00 in0.0 mm 0.00 in0.0 mm
03:50 AM 32.0°F0.0°C 30.5°F-0.8°C 94% 1.2 mph WNW1.9 kmh WNW 2.3 mph3.7 kmh 29.62 in1003.0 mb - 0.00 in0.0 mm 0.00 in0.0 mm
03:55 AM 32.0°F0.0°C 30.5°F-0.8°C 94% 1.2 mph WNW1.9 kmh WNW 2.3 mph3.7 kmh 29.62 in1003.0 mb - 0.00 in0.0 mm 0.00 in0.0 mm
04:00 AM 32.0°F0.0°C 30.5°F-0.8°C 94% 2.3 mph WNW3.7 kmh WNW 3.5 mph5.6 kmh 29.62 in1003.0 mb - 0.00 in0.0 mm 0.00 in0.0 mm
04:10 AM 32.0°F0.0°C 30.5°F-0.8°C 94% 2.3 mph WNW3.7 kmh WNW 3.5 mph5.6 kmh 29.62 in1003.0 mb - 0.00 in0.0 mm 0.00 in0.0 mm
04:15 AM 32.0°F0.0°C 29.9°F-1.2°C 92% 2.3 mph WNW3.7 kmh WNW 2.3 mph3.7 kmh 29.62 in1003.0 mb - 0.00 in0.0 mm 0.00 in0.0 mm
04:20 AM 31.8°F-0.1°C 29.8°F-1.2°C 92% 2.3 mph WNW3.7 kmh WNW 2.3 mph3.7 kmh 29.62 in1003.0 mb - 0.00 in0.0 mm 0.00 in0.0 mm
04:25 AM 31.8°F-0.1°C 29.8°F-1.2°C 92% 1.2 mph WNW1.9 kmh WNW 1.2 mph1.9 kmh 29.62 in1003.0 mb - 0.00 in0.0 mm 0.00 in0.0 mm
04:30 AM 31.6°F-0.2°C 29.6°F-1.3°C 92% 2.3 mph WNW3.7 kmh WNW 3.5 mph5.6 kmh 29.62 in1003.0 mb - 0.00 in0.0 mm 0.00 in0.0 mm
04:35 AM 31.6°F-0.2°C 29.6°F-1.3°C 92% 2.3 mph WNW3.7 kmh WNW 3.5 mph5.6 kmh 29.62 in1003.0 mb - 0.00 in0.0 mm 0.00 in0.0 mm
04:40 AM 31.5°F-0.3°C 29.4°F-1.4°C 92% 2.3 mph WNW3.7 kmh WNW 2.3 mph3.7 kmh 29.62 in1003.0 mb - 0.00 in0.0 mm 0.00 in0.0 mm
04:45 AM 31.3°F-0.4°C 29.3°F-1.5°C 92% 3.5 mph WNW5.6 kmh WNW 3.5 mph5.6 kmh 29.62 in1003.0 mb - 0.00 in0.0 mm 0.00 in0.0 mm
04:50 AM 31.3°F-0.4°C 29.2°F-1.6°C 92% 2.3 mph WNW3.7 kmh WNW 2.3 mph3.7 kmh 29.62 in1003.0 mb - 0.00 in0.0 mm 0.00 in0.0 mm
04:55 AM 31.1°F-0.5°C 29.0°F-1.7°C 92% 2.3 mph WNW3.7 kmh WNW 3.5 mph5.6 kmh 29.62 in1003.0 mb - 0.00 in0.0 mm 0.00 in0.0 mm
05:00 AM 31.1°F-0.5°C 29.0°F-1.7°C 92% 1.2 mph WNW1.9 kmh WNW 2.3 mph3.7 kmh 29.61 in1002.7 mb - 0.00 in0.0 mm 0.00 in0.0 mm
05:10 AM 31.1°F-0.5°C 29.0°F-1.7°C 92% 1.2 mph W1.9 kmh W 2.3 mph3.7 kmh 29.61 in1002.7 mb - 0.00 in0.0 mm 0.00 in0.0 mm
05:15 AM 31.1°F-0.5°C 29.0°F-1.7°C 92% 2.3 mph W3.7 kmh W 3.5 mph5.6 kmh 29.61 in1002.7 mb - 0.00 in0.0 mm 0.00 in0.0 mm
05:20 AM 31.0°F-0.6°C 29.0°F-1.7°C 92% 1.2 mph WNW1.9 kmh WNW 2.3 mph3.7 kmh 29.61 in1002.7 mb - 0.00 in0.0 mm 0.00 in0.0 mm
05:25 AM 30.9°F-0.6°C 28.9°F-1.7°C 92% 2.3 mph WNW3.7 kmh WNW 2.3 mph3.7 kmh 29.61 in1002.7 mb - 0.00 in0.0 mm 0.00 in0.0 mm
05:30 AM 30.9°F-0.6°C 28.9°F-1.7°C 92% 2.3 mph WNW3.7 kmh WNW 2.3 mph3.7 kmh 29.61 in1002.7 mb - 0.00 in0.0 mm 0.00 in0.0 mm
05:35 AM 30.7°F-0.7°C 28.7°F-1.8°C 92% 3.5 mph WNW5.6 kmh WNW 3.5 mph5.6 kmh 29.61 in1002.7 mb - 0.00 in0.0 mm 0.00 in0.0 mm
05:40 AM 30.7°F-0.7°C 28.7°F-1.8°C 92% 3.5 mph WNW5.6 kmh WNW 3.5 mph5.6 kmh 29.61 in1002.7 mb - 0.00 in0.0 mm 0.00 in0.0 mm
05:45 AM 30.7°F-0.7°C 28.7°F-1.8°C 92% 2.3 mph WNW3.7 kmh WNW 3.5 mph5.6 kmh 29.61 in1002.7 mb - 0.00 in0.0 mm 0.00 in0.0 mm
05:50 AM 30.7°F-0.7°C 28.7°F-1.8°C 92% 3.5 mph WNW5.6 kmh WNW 3.5 mph5.6 kmh 29.62 in1003.0 mb - 0.00 in0.0 mm 0.00 in0.0 mm
05:55 AM 30.7°F-0.7°C 28.7°F-1.8°C 92% 3.5 mph WNW5.6 kmh WNW 4.6 mph7.4 kmh 29.62 in1003.0 mb - 0.00 in0.0 mm 0.00 in0.0 mm
06:00 AM 30.7°F-0.7°C 28.4°F-2.0°C 91% 4.6 mph WNW7.4 kmh WNW 6.9 mph11.1 kmh 29.62 in1003.0 mb - 0.00 in0.0 mm 0.00 in0.0 mm
06:10 AM 30.9°F-0.6°C 28.3°F-2.1°C 90% 3.5 mph NNW5.6 kmh NNW 3.5 mph5.6 kmh 29.63 in1003.4 mb - 0.00 in0.0 mm 0.00 in0.0 mm
06:15 AM 30.9°F-0.6°C 28.3°F-2.1°C 90% 4.6 mph WNW7.4 kmh WNW 4.6 mph7.4 kmh 29.62 in1003.0 mb - 0.00 in0.0 mm 0.00 in0.0 mm
06:20 AM 30.9°F-0.6°C 28.3°F-2.1°C 90% 3.5 mph W5.6 kmh W 3.5 mph5.6 kmh 29.62 in1003.0 mb - 0.00 in0.0 mm 0.00 in0.0 mm
06:25 AM 30.7°F-0.7°C 27.9°F-2.3°C 89% 4.6 mph WNW7.4 kmh WNW 6.9 mph11.1 kmh 29.62 in1003.0 mb - 0.00 in0.0 mm 0.00 in0.0 mm
06:30 AM 30.9°F-0.6°C 27.8°F-2.3°C 88% 4.6 mph WNW7.4 kmh WNW 4.6 mph7.4 kmh 29.62 in1003.0 mb - 0.00 in0.0 mm 0.00 in0.0 mm
06:35 AM 30.7°F-0.7°C 27.6°F-2.4°C 88% 3.5 mph W5.6 kmh W 5.8 mph9.3 kmh 29.63 in1003.4 mb - 0.00 in0.0 mm 0.00 in0.0 mm
06:40 AM 30.6°F-0.8°C 27.4°F-2.6°C 88% 3.5 mph NW5.6 kmh NW 3.5 mph5.6 kmh 29.63 in1003.4 mb - 0.00 in0.0 mm 0.00 in0.0 mm
06:45 AM 30.6°F-0.8°C 27.5°F-2.5°C 88% 4.6 mph WNW7.4 kmh WNW 6.9 mph11.1 kmh 29.63 in1003.4 mb - 0.00 in0.0 mm 0.00 in0.0 mm
06:50 AM 30.7°F-0.7°C 27.3°F-2.6°C 87% 3.5 mph WNW5.6 kmh WNW 4.6 mph7.4 kmh 29.63 in1003.4 mb - 0.00 in0.0 mm 0.00 in0.0 mm
06:55 AM 30.7°F-0.7°C 27.0°F-2.8°C 86% 3.5 mph WNW5.6 kmh WNW 4.6 mph7.4 kmh 29.63 in1003.4 mb - 0.00 in0.0 mm 0.00 in0.0 mm
07:00 AM 30.7°F-0.7°C 27.0°F-2.8°C 86% 2.3 mph WNW3.7 kmh WNW 3.5 mph5.6 kmh 29.63 in1003.4 mb - 0.00 in0.0 mm 0.00 in0.0 mm
07:10 AM 30.6°F-0.8°C 27.2°F-2.7°C 87% 3.5 mph WNW5.6 kmh WNW 3.5 mph5.6 kmh 29.63 in1003.4 mb - 0.00 in0.0 mm 0.00 in0.0 mm
07:15 AM 30.6°F-0.8°C 27.2°F-2.7°C 87% 3.5 mph WNW5.6 kmh WNW 4.6 mph7.4 kmh 29.63 in1003.4 mb - 0.00 in0.0 mm 0.00 in0.0 mm
07:20 AM 30.6°F-0.8°C 27.2°F-2.7°C 87% 3.5 mph WNW5.6 kmh WNW 4.6 mph7.4 kmh 29.63 in1003.4 mb - 0.00 in0.0 mm 0.00 in0.0 mm
07:25 AM 30.7°F-0.7°C 27.3°F-2.6°C 87% 3.5 mph W5.6 kmh W 3.5 mph5.6 kmh 29.63 in1003.4 mb - 0.00 in0.0 mm 0.00 in0.0 mm
07:30 AM 30.7°F-0.7°C 27.3°F-2.6°C 87% 4.6 mph WNW7.4 kmh WNW 6.9 mph11.1 kmh 29.64 in1003.7 mb - 0.00 in0.0 mm 0.00 in0.0 mm
07:35 AM 31.1°F-0.5°C 27.4°F-2.6°C 86% 3.5 mph NW5.6 kmh NW 3.5 mph5.6 kmh 29.64 in1003.7 mb - 0.00 in0.0 mm 0.00 in0.0 mm
07:40 AM 31.1°F-0.5°C 26.8°F-2.9°C 84% 3.5 mph WNW5.6 kmh WNW 4.6 mph7.4 kmh 29.64 in1003.7 mb - 0.00 in0.0 mm 0.00 in0.0 mm
07:45 AM 31.3°F-0.4°C 26.7°F-2.9°C 83% 3.5 mph WNW5.6 kmh WNW 4.6 mph7.4 kmh 29.64 in1003.7 mb - 0.00 in0.0 mm 0.00 in0.0 mm
07:50 AM 31.3°F-0.4°C 26.7°F-2.9°C 83% 3.5 mph NW5.6 kmh NW 3.5 mph5.6 kmh 29.64 in1003.7 mb - 0.00 in0.0 mm 0.00 in0.0 mm
07:55 AM 31.5°F-0.3°C 26.3°F-3.2°C 81% 4.6 mph WNW7.4 kmh WNW 3.5 mph5.6 kmh 29.64 in1003.7 mb - 0.00 in0.0 mm 0.00 in0.0 mm
08:00 AM 31.5°F-0.3°C 26.3°F-3.2°C 81% 4.6 mph WNW7.4 kmh WNW 5.8 mph9.3 kmh 29.64 in1003.7 mb - 0.00 in0.0 mm 0.00 in0.0 mm
08:10 AM 31.5°F-0.3°C 26.0°F-3.3°C 80% 3.5 mph NW5.6 kmh NW 4.6 mph7.4 kmh 29.65 in1004.1 mb - 0.00 in0.0 mm 0.00 in0.0 mm
08:15 AM 31.5°F-0.3°C 26.0°F-3.3°C 80% 3.5 mph NW5.6 kmh NW 5.8 mph9.3 kmh 29.65 in1004.1 mb - 0.00 in0.0 mm 0.00 in0.0 mm
08:20 AM 31.5°F-0.3°C 26.0°F-3.3°C 80% 4.6 mph NW7.4 kmh NW 4.6 mph7.4 kmh 29.65 in1004.1 mb - 0.00 in0.0 mm 0.00 in0.0 mm
08:25 AM 31.6°F-0.2°C 26.2°F-3.2°C 80% 3.5 mph NW5.6 kmh NW 5.8 mph9.3 kmh 29.65 in1004.1 mb - 0.00 in0.0 mm 0.00 in0.0 mm
08:30 AM 31.6°F-0.2°C 26.2°F-3.2°C 80% 4.6 mph NNW7.4 kmh NNW 6.9 mph11.1 kmh 29.65 in1004.1 mb - 0.00 in0.0 mm 0.00 in0.0 mm
08:35 AM 31.8°F-0.1°C 26.4°F-3.1°C 80% 4.6 mph NW7.4 kmh NW 4.6 mph7.4 kmh 29.65 in1004.1 mb - 0.00 in0.0 mm 0.00 in0.0 mm
08:40 AM 31.8°F-0.1°C 26.0°F-3.3°C 79% 4.6 mph NNW7.4 kmh NNW 8.1 mph13.0 kmh 29.65 in1004.1 mb - 0.00 in0.0 mm 0.00 in0.0 mm
08:45 AM 32.0°F0.0°C 26.2°F-3.2°C 79% 4.6 mph NNW7.4 kmh NNW 4.6 mph7.4 kmh 29.65 in1004.1 mb - 0.00 in0.0 mm 0.00 in0.0 mm
08:50 AM 32.0°F0.0°C 26.2°F-3.2°C 79% 4.6 mph WNW7.4 kmh WNW 3.5 mph5.6 kmh 29.65 in1004.1 mb - 0.00 in0.0 mm 0.00 in0.0 mm
08:55 AM 32.0°F0.0°C 26.2°F-3.2°C 79% 5.8 mph WNW9.3 kmh WNW 4.6 mph7.4 kmh 29.65 in1004.1 mb - 0.00 in0.0 mm 0.00 in0.0 mm
09:00 AM 32.4°F0.2°C 25.6°F-3.6°C 76% 5.8 mph NNW9.3 kmh NNW 6.9 mph11.1 kmh 29.65 in1004.1 mb - 0.00 in0.0 mm 0.00 in0.0 mm
09:10 AM 32.7°F0.4°C 25.6°F-3.6°C 75% 6.9 mph NW11.1 kmh NW 6.9 mph11.1 kmh 29.65 in1004.1 mb - 0.00 in0.0 mm 0.00 in0.0 mm
09:15 AM 32.7°F0.4°C 25.3°F-3.7°C 74% 6.9 mph NW11.1 kmh NW 9.2 mph14.8 kmh 29.65 in1004.1 mb - 0.00 in0.0 mm 0.00 in0.0 mm
09:20 AM 32.9°F0.5°C 25.2°F-3.8°C 73% 8.1 mph NNW13.0 kmh NNW 10.4 mph16.7 kmh 29.66 in1004.4 mb - 0.00 in0.0 mm 0.00 in0.0 mm
09:25 AM 33.4°F0.8°C 25.4°F-3.7°C 72% 6.9 mph NNW11.1 kmh NNW 9.2 mph14.8 kmh 29.66 in1004.4 mb - 0.00 in0.0 mm 0.00 in0.0 mm
09:30 AM 34.2°F1.2°C 25.7°F-3.5°C 71% 6.9 mph NNW11.1 kmh NNW 10.4 mph16.7 kmh 29.66 in1004.4 mb - 0.00 in0.0 mm 0.00 in0.0 mm
09:35 AM 34.5°F1.4°C 25.7°F-3.5°C 70% 8.1 mph WNW13.0 kmh WNW 12.7 mph20.4 kmh 29.66 in1004.4 mb - 0.00 in0.0 mm 0.00 in0.0 mm
09:40 AM 34.7°F1.5°C 25.6°F-3.6°C 69% 8.1 mph NW13.0 kmh NW 10.4 mph16.7 kmh 29.66 in1004.4 mb - 0.00 in0.0 mm 0.00 in0.0 mm
09:45 AM 34.3°F1.3°C 24.8°F-4.0°C 68% 9.2 mph NW14.8 kmh NW 10.4 mph16.7 kmh 29.66 in1004.4 mb - 0.00 in0.0 mm 0.00 in0.0 mm
09:50 AM 34.2°F1.2°C 24.7°F-4.1°C 68% 10.4 mph NNW16.7 kmh NNW 11.5 mph18.5 kmh 29.67 in1004.7 mb - 0.00 in0.0 mm 0.00 in0.0 mm
09:55 AM 34.0°F1.1°C 24.5°F-4.2°C 68% 9.2 mph NW14.8 kmh NW 12.7 mph20.4 kmh 29.67 in1004.7 mb - 0.00 in0.0 mm 0.00 in0.0 mm
10:00 AM 34.0°F1.1°C 24.5°F-4.2°C 68% 6.9 mph NW11.1 kmh NW 8.1 mph13.0 kmh 29.67 in1004.7 mb - 0.00 in0.0 mm 0.00 in0.0 mm
10:10 AM 34.2°F1.2°C 24.4°F-4.2°C 67% 8.1 mph NNW13.0 kmh NNW 8.1 mph13.0 kmh 29.68 in1005.1 mb - 0.00 in0.0 mm 0.00 in0.0 mm
10:15 AM 34.3°F1.3°C 24.5°F-4.2°C 67% 9.2 mph NNW14.8 kmh NNW 11.5 mph18.5 kmh 29.68 in1005.1 mb - 0.00 in0.0 mm 0.00 in0.0 mm
10:20 AM 34.2°F1.2°C 24.3°F-4.3°C 67% 9.2 mph NNW14.8 kmh NNW 9.2 mph14.8 kmh 29.68 in1005.1 mb - 0.00 in0.0 mm 0.00 in0.0 mm
10:25 AM 34.2°F1.2°C 24.0°F-4.4°C 66% 9.2 mph NNW14.8 kmh NNW 10.4 mph16.7 kmh 29.68 in1005.1 mb - 0.00 in0.0 mm 0.00 in0.0 mm
10:30 AM 34.2°F1.2°C 24.0°F-4.4°C 66% 5.8 mph NW9.3 kmh NW 5.8 mph9.3 kmh 29.68 in1005.1 mb - 0.00 in0.0 mm 0.00 in0.0 mm
10:35 AM 34.3°F1.3°C 24.1°F-4.4°C 66% 6.9 mph NNW11.1 kmh NNW 10.4 mph16.7 kmh 29.68 in1005.1 mb - 0.00 in0.0 mm 0.00 in0.0 mm
10:40 AM 34.3°F1.3°C 23.8°F-4.6°C 65% 9.2 mph NNW14.8 kmh NNW 11.5 mph18.5 kmh 29.68 in1005.1 mb - 0.00 in0.0 mm 0.00 in0.0 mm
10:45 AM 34.4°F1.3°C 23.5°F-4.7°C 64% 10.4 mph NNW16.7 kmh NNW 11.5 mph18.5 kmh 29.67 in1004.7 mb - 0.00 in0.0 mm 0.00 in0.0 mm
10:50 AM 34.7°F1.5°C 23.8°F-4.6°C 64% 10.4 mph NNW16.7 kmh NNW 8.1 mph13.0 kmh 29.67 in1004.7 mb - 0.00 in0.0 mm 0.00 in0.0 mm
10:55 AM 34.9°F1.6°C 23.6°F-4.7°C 63% 10.4 mph NNW16.7 kmh NNW 10.4 mph16.7 kmh 29.67 in1004.7 mb - 0.00 in0.0 mm 0.00 in0.0 mm
11:00 AM 34.5°F1.4°C 23.2°F-4.9°C 63% 10.4 mph NNW16.7 kmh NNW 10.4 mph16.7 kmh 29.67 in1004.7 mb - 0.00 in0.0 mm 0.00 in0.0 mm
11:10 AM 34.2°F1.2°C 22.9°F-5.1°C 63% 6.9 mph NNW11.1 kmh NNW 8.1 mph13.0 kmh 29.68 in1005.1 mb - 0.00 in0.0 mm 0.00 in0.0 mm
11:15 AM 33.8°F1.0°C 22.5°F-5.3°C 63% 9.2 mph N14.8 kmh N 9.2 mph14.8 kmh 29.68 in1005.1 mb - 0.00 in0.0 mm 0.00 in0.0 mm
11:20 AM 33.6°F0.9°C 22.4°F-5.3°C 63% 8.1 mph N13.0 kmh N 10.4 mph16.7 kmh 29.68 in1005.1 mb - 0.00 in0.0 mm 0.00 in0.0 mm
11:25 AM 34.3°F1.3°C 23.0°F-5.0°C 63% 9.2 mph N14.8 kmh N 10.4 mph16.7 kmh 29.68 in1005.1 mb - 0.00 in0.0 mm 0.00 in0.0 mm
11:30 AM 34.9°F1.6°C 23.2°F-4.9°C 62% 9.2 mph NNW14.8 kmh NNW 9.2 mph14.8 kmh 29.68 in1005.1 mb - 0.00 in0.0 mm 0.00 in0.0 mm
11:35 AM 35.4°F1.9°C 23.3°F-4.8°C 61% 8.1 mph N13.0 kmh N 11.5 mph18.5 kmh 29.69 in1005.4 mb - 0.00 in0.0 mm 0.00 in0.0 mm
11:40 AM 35.5°F1.9°C 23.0°F-5.0°C 60% 9.2 mph NNE14.8 kmh NNE 10.4 mph16.7 kmh 29.69 in1005.4 mb - 0.00 in0.0 mm 0.00 in0.0 mm
11:45 AM 36.0°F2.2°C 23.5°F-4.7°C 60% 8.1 mph NNW13.0 kmh NNW 10.4 mph16.7 kmh 29.69 in1005.4 mb - 0.00 in0.0 mm 0.00 in0.0 mm
11:50 AM 36.3°F2.4°C 23.8°F-4.6°C 60% 6.9 mph N11.1 kmh N 6.9 mph11.1 kmh 29.69 in1005.4 mb - 0.00 in0.0 mm 0.00 in0.0 mm
11:55 AM 37.0°F2.8°C 24.4°F-4.2°C 60% 4.6 mph NNE7.4 kmh NNE 5.8 mph9.3 kmh 29.69 in1005.4 mb - 0.00 in0.0 mm 0.00 in0.0 mm
12:00 PM 37.2°F2.9°C 24.6°F-4.1°C 60% 8.1 mph NE13.0 kmh NE 8.1 mph13.0 kmh 29.69 in1005.4 mb - 0.00 in0.0 mm 0.00 in0.0 mm
12:10 PM 36.0°F2.2°C 23.0°F-5.0°C 59% 6.9 mph NNE11.1 kmh NNE 8.1 mph13.0 kmh 29.68 in1005.1 mb - 0.00 in0.0 mm 0.00 in0.0 mm
12:15 PM 36.0°F2.2°C 23.0°F-5.0°C 59% 5.8 mph NE9.3 kmh NE 8.1 mph13.0 kmh 29.69 in1005.4 mb - 0.00 in0.0 mm 0.00 in0.0 mm
12:20 PM 36.0°F2.2°C 23.0°F-5.0°C 59% 5.8 mph NNE9.3 kmh NNE 6.9 mph11.1 kmh 29.69 in1005.4 mb - 0.00 in0.0 mm 0.00 in0.0 mm
12:25 PM 36.0°F2.2°C 23.0°F-5.0°C 59% 6.9 mph N11.1 kmh N 8.1 mph13.0 kmh 29.69 in1005.4 mb - 0.00 in0.0 mm 0.00 in0.0 mm
12:30 PM 36.0°F2.2°C 23.0°F-5.0°C 59% 6.9 mph N11.1 kmh N 8.1 mph13.0 kmh 29.69 in1005.4 mb - 0.00 in0.0 mm 0.00 in0.0 mm
12:35 PM 35.8°F2.1°C 22.5°F-5.3°C 58% 10.4 mph NE16.7 kmh NE 15.0 mph24.1 kmh 29.69 in1005.4 mb - 0.00 in0.0 mm 0.00 in0.0 mm
12:40 PM 35.8°F2.1°C 22.4°F-5.3°C 58% 9.2 mph NE14.8 kmh NE 8.1 mph13.0 kmh 29.69 in1005.4 mb - 0.00 in0.0 mm 0.00 in0.0 mm
12:45 PM 35.6°F2.0°C 22.7°F-5.2°C 59% 9.2 mph N14.8 kmh N 10.4 mph16.7 kmh 29.69 in1005.4 mb - 0.00 in0.0 mm 0.00 in0.0 mm
12:50 PM 35.6°F2.0°C 22.3°F-5.4°C 58% 6.9 mph NNE11.1 kmh NNE 8.1 mph13.0 kmh 29.69 in1005.4 mb - 0.00 in0.0 mm 0.00 in0.0 mm
12:55 PM 35.6°F2.0°C 22.7°F-5.2°C 59% 9.2 mph NNW14.8 kmh NNW 11.5 mph18.5 kmh 29.69 in1005.4 mb - 0.00 in0.0 mm 0.00 in0.0 mm
01:00 PM 35.6°F2.0°C 22.7°F-5.2°C 59% 5.8 mph NNW9.3 kmh NNW 5.8 mph9.3 kmh 29.70 in1005.8 mb - 0.00 in0.0 mm 0.00 in0.0 mm
01:10 PM 35.5°F1.9°C 22.6°F-5.2°C 59% 11.5 mph NNW18.5 kmh NNW 13.8 mph22.2 kmh 29.70 in1005.8 mb - 0.00 in0.0 mm 0.00 in0.0 mm
01:15 PM 35.6°F2.0°C 22.6°F-5.2°C 59% 10.4 mph NNW16.7 kmh NNW 12.7 mph20.4 kmh 29.70 in1005.8 mb - 0.00 in0.0 mm 0.00 in0.0 mm
01:20 PM 35.4°F1.9°C 22.9°F-5.1°C 60% 6.9 mph NNE11.1 kmh NNE 10.4 mph16.7 kmh 29.70 in1005.8 mb - 0.00 in0.0 mm 0.00 in0.0 mm
01:25 PM 35.2°F1.8°C 22.3°F-5.4°C 59% 9.2 mph N14.8 kmh N 11.5 mph18.5 kmh 29.70 in1005.8 mb - 0.00 in0.0 mm 0.00 in0.0 mm
01:30 PM 35.1°F1.7°C 22.6°F-5.2°C 60% 6.9 mph NNE11.1 kmh NNE 8.1 mph13.0 kmh 29.70 in1005.8 mb - 0.00 in0.0 mm 0.00 in0.0 mm
01:35 PM 35.4°F1.9°C 23.3°F-4.8°C 61% 6.9 mph NNW11.1 kmh NNW 8.1 mph13.0 kmh 29.71 in1006.1 mb - 0.00 in0.0 mm 0.00 in0.0 mm
01:40 PM 35.5°F1.9°C 23.0°F-5.0°C 60% 4.6 mph NW7.4 kmh NW 8.1 mph13.0 kmh 29.71 in1006.1 mb - 0.00 in0.0 mm 0.00 in0.0 mm
01:45 PM 35.8°F2.1°C 23.6°F-4.7°C 61% 4.6 mph NNW7.4 kmh NNW 4.6 mph7.4 kmh 29.71 in1006.1 mb - 0.00 in0.0 mm 0.00 in0.0 mm
01:50 PM 35.4°F1.9°C 22.9°F-5.1°C 60% 9.2 mph N14.8 kmh N 9.2 mph14.8 kmh 29.71 in1006.1 mb - 0.00 in0.0 mm 0.00 in0.0 mm
01:55 PM 35.2°F1.8°C 22.7°F-5.2°C 60% 5.8 mph NNW9.3 kmh NNW 6.9 mph11.1 kmh 29.71 in1006.1 mb - 0.00 in0.0 mm 0.00 in0.0 mm
02:00 PM 35.4°F1.9°C 23.3°F-4.8°C 61% 3.5 mph ENE5.6 kmh ENE 4.6 mph7.4 kmh 29.71 in1006.1 mb - 0.00 in0.0 mm 0.00 in0.0 mm
02:10 PM 35.4°F1.9°C 23.3°F-4.8°C 61% 5.8 mph N9.3 kmh N 6.9 mph11.1 kmh 29.71 in1006.1 mb - 0.00 in0.0 mm 0.00 in0.0 mm
02:15 PM 35.4°F1.9°C 23.3°F-4.8°C 61% 3.5 mph NNW5.6 kmh NNW 4.6 mph7.4 kmh 29.71 in1006.1 mb - 0.00 in0.0 mm 0.00 in0.0 mm
02:20 PM 35.4°F1.9°C 23.3°F-4.8°C 61% 6.9 mph NNW11.1 kmh NNW 10.4 mph16.7 kmh 29.72 in1006.4 mb - 0.00 in0.0 mm 0.00 in0.0 mm
02:25 PM 35.2°F1.8°C 22.7°F-5.2°C 60% 6.9 mph NNW11.1 kmh NNW 9.2 mph14.8 kmh 29.72 in1006.4 mb - 0.00 in0.0 mm 0.00 in0.0 mm
02:30 PM 35.6°F2.0°C 23.5°F-4.7°C 61% 4.6 mph N7.4 kmh N 4.6 mph7.4 kmh 29.72 in1006.4 mb - 0.00 in0.0 mm 0.00 in0.0 mm
02:35 PM 35.3°F1.8°C 23.6°F-4.7°C 62% 3.5 mph NNE5.6 kmh NNE 4.6 mph7.4 kmh 29.71 in1006.1 mb - 0.00 in0.0 mm 0.00 in0.0 mm
02:40 PM 35.1°F1.7°C 23.7°F-4.6°C 63% 3.5 mph ENE5.6 kmh ENE 5.8 mph9.3 kmh 29.71 in1006.1 mb - 0.00 in0.0 mm 0.00 in0.0 mm
02:45 PM 34.9°F1.6°C 23.6°F-4.7°C 63% 3.5 mph NNE5.6 kmh NNE 5.8 mph9.3 kmh 29.72 in1006.4 mb - 0.00 in0.0 mm 0.00 in0.0 mm
02:50 PM 34.7°F1.5°C 23.8°F-4.6°C 64% 4.6 mph NE7.4 kmh NE 4.6 mph7.4 kmh 29.73 in1006.8 mb - 0.00 in0.0 mm 0.00 in0.0 mm
02:55 PM 34.5°F1.4°C 23.6°F-4.7°C 64% 4.6 mph NNE7.4 kmh NNE 3.5 mph5.6 kmh 29.73 in1006.8 mb - 0.00 in0.0 mm 0.00 in0.0 mm
03:00 PM 34.3°F1.3°C 23.4°F-4.8°C 64% 2.3 mph NNE3.7 kmh NNE 3.5 mph5.6 kmh 29.73 in1006.8 mb - 0.00 in0.0 mm 0.00 in0.0 mm
03:10 PM 34.2°F1.2°C 23.2°F-4.9°C 64% 3.5 mph NE5.6 kmh NE 3.5 mph5.6 kmh 29.73 in1006.8 mb - 0.00 in0.0 mm 0.00 in0.0 mm
03:15 PM 34.0°F1.1°C 23.4°F-4.8°C 65% 2.3 mph N3.7 kmh N 3.5 mph5.6 kmh 29.73 in1006.8 mb - 0.00 in0.0 mm 0.00 in0.0 mm
03:20 PM 34.0°F1.1°C 23.4°F-4.8°C 65% 2.3 mph NNW3.7 kmh NNW 2.3 mph3.7 kmh 29.73 in1006.8 mb - 0.00 in0.0 mm 0.00 in0.0 mm
03:25 PM 33.8°F1.0°C 23.3°F-4.8°C 65% 2.3 mph NNE3.7 kmh NNE 3.5 mph5.6 kmh 29.73 in1006.8 mb - 0.00 in0.0 mm 0.00 in0.0 mm
03:30 PM 33.8°F1.0°C 23.6°F-4.7°C 66% 2.3 mph NNE3.7 kmh NNE 3.5 mph5.6 kmh 29.73 in1006.8 mb - 0.00 in0.0 mm 0.00 in0.0 mm
03:35 PM 33.6°F0.9°C 23.5°F-4.7°C 66% 2.3 mph NE3.7 kmh NE 2.3 mph3.7 kmh 29.74 in1007.1 mb - 0.00 in0.0 mm 0.00 in0.0 mm
03:40 PM 33.4°F0.8°C 23.7°F-4.6°C 67% 2.3 mph NNE3.7 kmh NNE 2.3 mph3.7 kmh 29.74 in1007.1 mb - 0.00 in0.0 mm 0.00 in0.0 mm
03:45 PM 33.4°F0.8°C 23.6°F-4.7°C 67% 1.2 mph NNE1.9 kmh NNE 2.3 mph3.7 kmh 29.74 in1007.1 mb - 0.00 in0.0 mm 0.00 in0.0 mm
03:50 PM 33.3°F0.7°C 23.8°F-4.6°C 68% 1.2 mph NNE1.9 kmh NNE 1.2 mph1.9 kmh 29.75 in1007.5 mb - 0.00 in0.0 mm 0.00 in0.0 mm
03:55 PM 33.1°F0.6°C 23.7°F-4.6°C 68% Calm Calm 1.2 mph1.9 kmh 29.75 in1007.5 mb - 0.00 in0.0 mm 0.00 in0.0 mm
04:00 PM 32.9°F0.5°C 23.9°F-4.5°C 69% 2.3 mph NE3.7 kmh NE 2.3 mph3.7 kmh 29.74 in1007.1 mb - 0.00 in0.0 mm 0.00 in0.0 mm
04:10 PM 32.9°F0.5°C 24.5°F-4.2°C 71% 3.5 mph NNW5.6 kmh NNW 3.5 mph5.6 kmh 29.74 in1007.1 mb - 0.00 in0.0 mm 0.00 in0.0 mm
04:15 PM 32.9°F0.5°C 24.9°F-3.9°C 72% 3.5 mph NNW5.6 kmh NNW 3.5 mph5.6 kmh 29.74 in1007.1 mb - 0.00 in0.0 mm 0.00 in0.0 mm
04:20 PM 32.9°F0.5°C 24.9°F-3.9°C 72% 2.3 mph NNW3.7 kmh NNW 3.5 mph5.6 kmh 29.74 in1007.1 mb - 0.00 in0.0 mm 0.00 in0.0 mm
04:25 PM 32.9°F0.5°C 24.9°F-3.9°C 72% 3.5 mph NNW5.6 kmh NNW 3.5 mph5.6 kmh 29.74 in1007.1 mb - 0.00 in0.0 mm 0.00 in0.0 mm
04:30 PM 32.9°F0.5°C 24.9°F-3.9°C 72% 3.5 mph NNW5.6 kmh NNW 3.5 mph5.6 kmh 29.75 in1007.5 mb - 0.00 in0.0 mm 0.00 in0.0 mm
04:35 PM 32.8°F0.4°C 24.8°F-4.0°C 72% 2.3 mph NNW3.7 kmh NNW 3.5 mph5.6 kmh 29.75 in1007.5 mb - 0.00 in0.0 mm 0.00 in0.0 mm
04:40 PM 33.0°F0.6°C 24.6°F-4.1°C 71% 4.6 mph NNW7.4 kmh NNW 4.6 mph7.4 kmh 29.75 in1007.5 mb - 0.00 in0.0 mm 0.00 in0.0 mm
04:45 PM 32.9°F0.5°C 24.5°F-4.2°C 71% 4.6 mph N7.4 kmh N 6.9 mph11.1 kmh 29.75 in1007.5 mb - 0.00 in0.0 mm 0.00 in0.0 mm
04:50 PM 33.3°F0.7°C 23.8°F-4.6°C 68% 6.9 mph NNW11.1 kmh NNW 6.9 mph11.1 kmh 29.75 in1007.5 mb - 0.00 in0.0 mm 0.00 in0.0 mm
04:55 PM 33.4°F0.8°C 23.3°F-4.8°C 66% 5.8 mph NW9.3 kmh NW 6.9 mph11.1 kmh 29.75 in1007.5 mb - 0.00 in0.0 mm 0.00 in0.0 mm
05:00 PM 33.4°F0.8°C 23.3°F-4.8°C 66% 6.9 mph N11.1 kmh N 8.1 mph13.0 kmh 29.75 in1007.5 mb - 0.00 in0.0 mm 0.00 in0.0 mm
05:10 PM 33.4°F0.8°C 23.3°F-4.8°C 66% 5.8 mph NW9.3 kmh NW 8.1 mph13.0 kmh 29.75 in1007.5 mb - 0.00 in0.0 mm 0.00 in0.0 mm
05:15 PM 33.4°F0.8°C 22.9°F-5.1°C 65% 9.2 mph NW14.8 kmh NW 12.7 mph20.4 kmh 29.75 in1007.5 mb - 0.00 in0.0 mm 0.00 in0.0 mm
05:20 PM 33.4°F0.8°C 22.9°F-5.1°C 65% 9.2 mph NNW14.8 kmh NNW 11.5 mph18.5 kmh 29.74 in1007.1 mb - 0.00 in0.0 mm 0.00 in0.0 mm
05:25 PM 33.4°F0.8°C 22.9°F-5.1°C 65% 6.9 mph NW11.1 kmh NW 5.8 mph9.3 kmh 29.74 in1007.1 mb - 0.00 in0.0 mm 0.00 in0.0 mm
05:30 PM 33.4°F0.8°C 22.9°F-5.1°C 65% 8.1 mph NNW13.0 kmh NNW 10.4 mph16.7 kmh 29.75 in1007.5 mb - 0.00 in0.0 mm 0.00 in0.0 mm
05:35 PM 33.3°F0.7°C 23.1°F-4.9°C 66% 8.1 mph N13.0 kmh N 11.5 mph18.5 kmh 29.75 in1007.5 mb - 0.00 in0.0 mm 0.00 in0.0 mm
05:40 PM 33.3°F0.7°C 22.8°F-5.1°C 65% 6.9 mph N11.1 kmh N 8.1 mph13.0 kmh 29.75 in1007.5 mb - 0.00 in0.0 mm 0.00 in0.0 mm
05:45 PM 33.3°F0.7°C 22.8°F-5.1°C 65% 10.4 mph NNW16.7 kmh NNW 15.0 mph24.1 kmh 29.76 in1007.8 mb - 0.00 in0.0 mm 0.00 in0.0 mm
05:50 PM 33.3°F0.7°C 22.8°F-5.1°C 65% 10.4 mph NNW16.7 kmh NNW 10.4 mph16.7 kmh 29.76 in1007.8 mb - 0.00 in0.0 mm 0.00 in0.0 mm
05:55 PM 33.1°F0.6°C 22.6°F-5.2°C 65% 8.1 mph N13.0 kmh N 11.5 mph18.5 kmh 29.76 in1007.8 mb - 0.00 in0.0 mm 0.00 in0.0 mm
06:00 PM 32.9°F0.5°C 22.5°F-5.3°C 65% 6.9 mph N11.1 kmh N 10.4 mph16.7 kmh 29.76 in1007.8 mb - 0.00 in0.0 mm 0.00 in0.0 mm
06:10 PM 32.9°F0.5°C 22.4°F-5.3°C 65% 5.8 mph NNW9.3 kmh NNW 8.1 mph13.0 kmh 29.76 in1007.8 mb - 0.00 in0.0 mm 0.00 in0.0 mm
06:15 PM 32.7°F0.4°C 22.2°F-5.4°C 65% 8.1 mph NNW13.0 kmh NNW 11.5 mph18.5 kmh 29.76 in1007.8 mb - 0.00 in0.0 mm 0.00 in0.0 mm
06:20 PM 32.7°F0.4°C 21.9°F-5.6°C 64% 10.4 mph N16.7 kmh N 11.5 mph18.5 kmh 29.77 in1008.1 mb - 0.00 in0.0 mm 0.00 in0.0 mm
06:25 PM 32.5°F0.3°C 21.7°F-5.7°C 64% 9.2 mph NW14.8 kmh NW 8.1 mph13.0 kmh 29.77 in1008.1 mb - 0.00 in0.0 mm 0.00 in0.0 mm
06:30 PM 32.5°F0.3°C 21.7°F-5.7°C 64% 10.4 mph NNW16.7 kmh NNW 12.7 mph20.4 kmh 29.77 in1008.1 mb - 0.00 in0.0 mm 0.00 in0.0 mm
06:35 PM 32.5°F0.3°C 21.6°F-5.8°C 64% 8.1 mph NNW13.0 kmh NNW 9.2 mph14.8 kmh 29.77 in1008.1 mb - 0.00 in0.0 mm 0.00 in0.0 mm
06:40 PM 32.4°F0.2°C 21.5°F-5.8°C 64% 8.1 mph NW13.0 kmh NW 10.4 mph16.7 kmh 29.77 in1008.1 mb - 0.00 in0.0 mm 0.00 in0.0 mm
06:45 PM 32.4°F0.2°C 21.5°F-5.8°C 64% 9.2 mph NNW14.8 kmh NNW 12.7 mph20.4 kmh 29.77 in1008.1 mb - 0.00 in0.0 mm 0.00 in0.0 mm
06:50 PM 32.4°F0.2°C 21.2°F-6.0°C 63% 9.2 mph NNW14.8 kmh NNW 9.2 mph14.8 kmh 29.77 in1008.1 mb - 0.00 in0.0 mm 0.00 in0.0 mm
06:55 PM 32.2°F0.1°C 21.4°F-5.9°C 64% 6.9 mph NNW11.1 kmh NNW 8.1 mph13.0 kmh 29.77 in1008.1 mb - 0.00 in0.0 mm 0.00 in0.0 mm
07:00 PM 32.0°F0.0°C 21.2°F-6.0°C 64% 6.9 mph NNW11.1 kmh NNW 5.8 mph9.3 kmh 29.77 in1008.1 mb - 0.00 in0.0 mm 0.00 in0.0 mm
07:10 PM 32.0°F0.0°C 21.2°F-6.0°C 64% 5.8 mph 9.3 kmh 8.1 mph13.0 kmh 29.77 in1008.1 mb - 0.00 in0.0 mm 0.00 in0.0 mm
07:15 PM 32.0°F0.0°C 21.2°F-6.0°C 64% 4.6 mph N7.4 kmh N 5.8 mph9.3 kmh 29.77 in1008.1 mb - 0.00 in0.0 mm 0.00 in0.0 mm
07:20 PM 32.0°F0.0°C 21.6°F-5.8°C 65% 3.5 mph N5.6 kmh N 9.2 mph14.8 kmh 29.77 in1008.1 mb - 0.00 in0.0 mm 0.00 in0.0 mm
07:25 PM 32.0°F0.0°C 21.6°F-5.8°C 65% 6.9 mph 11.1 kmh 8.1 mph13.0 kmh 29.77 in1008.1 mb - 0.00 in0.0 mm 0.00 in0.0 mm
07:30 PM 31.9°F-0.1°C 21.8°F-5.7°C 66% 5.8 mph NE9.3 kmh NE 5.8 mph9.3 kmh 29.78 in1008.5 mb - 0.00 in0.0 mm 0.00 in0.0 mm
07:35 PM 31.5°F-0.3°C 22.5°F-5.3°C 69% 6.9 mph E11.1 kmh E 6.9 mph11.1 kmh 29.79 in1008.8 mb - 0.00 in0.0 mm 0.00 in0.0 mm
07:40 PM 30.5°F-0.8°C 22.6°F-5.2°C 72% 5.8 mph E9.3 kmh E 8.1 mph13.0 kmh 29.79 in1008.8 mb - 0.00 in0.0 mm 0.00 in0.0 mm
07:45 PM 29.8°F-1.2°C 22.2°F-5.4°C 73% 8.1 mph E13.0 kmh E 8.1 mph13.0 kmh 29.79 in1008.8 mb - 0.00 in0.0 mm 0.00 in0.0 mm
07:50 PM 29.5°F-1.4°C 21.9°F-5.6°C 73% 9.2 mph E14.8 kmh E 9.2 mph14.8 kmh 29.80 in1009.1 mb - 0.00 in0.0 mm 0.00 in0.0 mm
07:55 PM 28.9°F-1.7°C 21.1°F-6.1°C 72% 6.9 mph NE11.1 kmh NE 6.9 mph11.1 kmh 29.80 in1009.1 mb - 0.00 in0.0 mm 0.00 in0.0 mm
08:00 PM 28.3°F-2.1°C 20.1°F-6.6°C 71% 10.4 mph E16.7 kmh E 11.5 mph18.5 kmh 29.80 in1009.1 mb - 0.00 in0.0 mm 0.00 in0.0 mm
08:10 PM 27.7°F-2.4°C 19.5°F-6.9°C 71% 9.2 mph ENE14.8 kmh ENE 12.7 mph20.4 kmh 29.81 in1009.5 mb - 0.00 in0.0 mm 0.00 in0.0 mm
08:15 PM 27.5°F-2.5°C 19.3°F-7.1°C 71% 9.2 mph E14.8 kmh E 12.7 mph20.4 kmh 29.82 in1009.8 mb - 0.00 in0.0 mm 0.00 in0.0 mm
08:20 PM 27.0°F-2.8°C 18.8°F-7.3°C 71% 6.9 mph ENE11.1 kmh ENE 8.1 mph13.0 kmh 29.82 in1009.8 mb - 0.00 in0.0 mm 0.00 in0.0 mm
08:25 PM 26.8°F-2.9°C 18.6°F-7.4°C 71% 4.6 mph ENE7.4 kmh ENE 4.6 mph7.4 kmh 29.82 in1009.8 mb - 0.00 in0.0 mm 0.00 in0.0 mm
08:30 PM 26.8°F-2.9°C 19.0°F-7.2°C 72% 4.6 mph NE7.4 kmh NE 6.9 mph11.1 kmh 29.82 in1009.8 mb - 0.00 in0.0 mm 0.00 in0.0 mm
08:35 PM 26.7°F-2.9°C 18.6°F-7.4°C 71% 5.8 mph ENE9.3 kmh ENE 5.8 mph9.3 kmh 29.82 in1009.8 mb - 0.00 in0.0 mm 0.00 in0.0 mm
08:40 PM 26.6°F-3.0°C 18.5°F-7.5°C 71% 6.9 mph NE11.1 kmh NE 10.4 mph16.7 kmh 29.82 in1009.8 mb - 0.00 in0.0 mm 0.00 in0.0 mm
08:45 PM 26.4°F-3.1°C 18.6°F-7.4°C 72% 5.8 mph ENE9.3 kmh ENE 6.9 mph11.1 kmh 29.82 in1009.8 mb - 0.00 in0.0 mm 0.00 in0.0 mm
08:50 PM 26.4°F-3.1°C 18.6°F-7.4°C 72% 4.6 mph ENE7.4 kmh ENE 4.6 mph7.4 kmh 29.82 in1009.8 mb - 0.00 in0.0 mm 0.00 in0.0 mm
08:55 PM 26.4°F-3.1°C 18.6°F-7.4°C 72% 3.5 mph NE5.6 kmh NE 4.6 mph7.4 kmh 29.82 in1009.8 mb - 0.00 in0.0 mm 0.00 in0.0 mm
09:00 PM 26.4°F-3.1°C 18.6°F-7.4°C 72% 4.6 mph NE7.4 kmh NE 6.9 mph11.1 kmh 29.83 in1010.2 mb - 0.00 in0.0 mm 0.00 in0.0 mm
09:10 PM 26.2°F-3.2°C 18.1°F-7.7°C 71% 3.5 mph NNE5.6 kmh NNE 5.8 mph9.3 kmh 29.83 in1010.2 mb - 0.00 in0.0 mm 0.00 in0.0 mm
09:15 PM 26.2°F-3.2°C 18.1°F-7.7°C 71% 4.6 mph NNE7.4 kmh NNE 9.2 mph14.8 kmh 29.84 in1010.5 mb - 0.00 in0.0 mm 0.00 in0.0 mm
09:20 PM 26.2°F-3.2°C 17.8°F-7.9°C 70% 4.6 mph NNE7.4 kmh NNE 5.8 mph9.3 kmh 29.84 in1010.5 mb - 0.00 in0.0 mm 0.00 in0.0 mm
09:25 PM 26.1°F-3.3°C 17.3°F-8.2°C 69% 11.5 mph NE18.5 kmh NE 16.1 mph25.9 kmh 29.84 in1010.5 mb - 0.00 in0.0 mm 0.00 in0.0 mm
09:30 PM 26.1°F-3.3°C 16.9°F-8.4°C 68% 8.1 mph NE13.0 kmh NE 10.4 mph16.7 kmh 29.84 in1010.5 mb - 0.00 in0.0 mm 0.00 in0.0 mm
09:35 PM 26.1°F-3.3°C 16.6°F-8.6°C 67% 6.9 mph NE11.1 kmh NE 10.4 mph16.7 kmh 29.84 in1010.5 mb - 0.00 in0.0 mm 0.00 in0.0 mm
09:40 PM 26.1°F-3.3°C 16.2°F-8.8°C 66% 6.9 mph NE11.1 kmh NE 9.2 mph14.8 kmh 29.84 in1010.5 mb - 0.00 in0.0 mm 0.00 in0.0 mm
09:45 PM 26.1°F-3.3°C 16.2°F-8.8°C 66% 6.9 mph NE11.1 kmh NE 10.4 mph16.7 kmh 29.84 in1010.5 mb - 0.00 in0.0 mm 0.00 in0.0 mm
09:50 PM 25.9°F-3.4°C 16.1°F-8.8°C 66% 8.1 mph NE13.0 kmh NE 12.7 mph20.4 kmh 29.85 in1010.8 mb - 0.00 in0.0 mm 0.00 in0.0 mm
09:55 PM 25.7°F-3.5°C 15.9°F-8.9°C 66% 8.1 mph NNE13.0 kmh NNE 10.4 mph16.7 kmh 29.85 in1010.8 mb - 0.00 in0.0 mm 0.00 in0.0 mm
10:00 PM 25.7°F-3.5°C 15.9°F-8.9°C 66% 6.9 mph NE11.1 kmh NE 8.1 mph13.0 kmh 29.85 in1010.8 mb - 0.00 in0.0 mm 0.00 in0.0 mm
10:10 PM 25.5°F-3.6°C 15.7°F-9.1°C 66% 6.9 mph NNE11.1 kmh NNE 8.1 mph13.0 kmh 29.86 in1011.2 mb - 0.00 in0.0 mm 0.00 in0.0 mm
10:15 PM 25.5°F-3.6°C 15.4°F-9.2°C 65% 4.6 mph NNE7.4 kmh NNE 5.8 mph9.3 kmh 29.86 in1011.2 mb - 0.00 in0.0 mm 0.00 in0.0 mm
10:20 PM 25.5°F-3.6°C 15.7°F-9.1°C 66% 5.8 mph ENE9.3 kmh ENE 5.8 mph9.3 kmh 29.86 in1011.2 mb - 0.00 in0.0 mm 0.00 in0.0 mm
10:25 PM 25.3°F-3.7°C 15.2°F-9.3°C 65% 5.8 mph NNE9.3 kmh NNE 10.4 mph16.7 kmh 29.86 in1011.2 mb - 0.00 in0.0 mm 0.00 in0.0 mm
10:30 PM 25.3°F-3.7°C 15.2°F-9.3°C 65% 4.6 mph NE7.4 kmh NE 9.2 mph14.8 kmh 29.86 in1011.2 mb - 0.00 in0.0 mm 0.00 in0.0 mm
10:35 PM 25.2°F-3.8°C 15.0°F-9.4°C 65% 4.6 mph NNE7.4 kmh NNE 5.8 mph9.3 kmh 29.86 in1011.2 mb - 0.00 in0.0 mm 0.00 in0.0 mm
10:40 PM 25.2°F-3.8°C 15.0°F-9.4°C 65% 4.6 mph NNE7.4 kmh NNE 5.8 mph9.3 kmh 29.86 in1011.2 mb - 0.00 in0.0 mm 0.00 in0.0 mm
10:45 PM 25.2°F-3.8°C 15.4°F-9.2°C 66% 8.1 mph NNE13.0 kmh NNE 12.7 mph20.4 kmh 29.86 in1011.2 mb - 0.00 in0.0 mm 0.00 in0.0 mm
10:50 PM 25.2°F-3.8°C 15.0°F-9.4°C 65% 6.9 mph NNE11.1 kmh NNE 4.6 mph7.4 kmh 29.87 in1011.5 mb - 0.00 in0.0 mm 0.00 in0.0 mm
10:55 PM 25.2°F-3.8°C 15.0°F-9.4°C 65% 8.1 mph NE13.0 kmh NE 9.2 mph14.8 kmh 29.87 in1011.5 mb - 0.00 in0.0 mm 0.00 in0.0 mm
11:00 PM 25.2°F-3.8°C 15.0°F-9.4°C 65% 5.8 mph N9.3 kmh N 4.6 mph7.4 kmh 29.87 in1011.5 mb - 0.00 in0.0 mm 0.00 in0.0 mm
11:10 PM 25.0°F-3.9°C 14.9°F-9.5°C 65% 6.9 mph NE11.1 kmh NE 6.9 mph11.1 kmh 29.88 in1011.9 mb - 0.00 in0.0 mm 0.00 in0.0 mm
11:15 PM 25.0°F-3.9°C 15.2°F-9.3°C 66% 4.6 mph NE7.4 kmh NE 5.8 mph9.3 kmh 29.88 in1011.9 mb - 0.00 in0.0 mm 0.00 in0.0 mm
11:20 PM 25.0°F-3.9°C 14.9°F-9.5°C 65% 4.6 mph NE7.4 kmh NE 4.6 mph7.4 kmh 29.88 in1011.9 mb - 0.00 in0.0 mm 0.00 in0.0 mm
11:25 PM 25.0°F-3.9°C 14.9°F-9.5°C 65% 4.6 mph NNE7.4 kmh NNE 3.5 mph5.6 kmh 29.88 in1011.9 mb - 0.00 in0.0 mm 0.00 in0.0 mm
11:30 PM 25.0°F-3.9°C 14.9°F-9.5°C 65% 4.6 mph N7.4 kmh N 3.5 mph5.6 kmh 29.88 in1011.9 mb - 0.00 in0.0 mm 0.00 in0.0 mm
11:35 PM 25.0°F-3.9°C 14.5°F-9.7°C 64% 5.8 mph NE9.3 kmh NE 6.9 mph11.1 kmh 29.88 in1011.9 mb - 0.00 in0.0 mm 0.00 in0.0 mm
11:40 PM 25.0°F-3.9°C 14.5°F-9.7°C 64% 4.6 mph NE7.4 kmh NE 5.8 mph9.3 kmh 29.88 in1011.9 mb - 0.00 in0.0 mm 0.00 in0.0 mm
11:45 PM 25.0°F-3.9°C 14.5°F-9.7°C 64% 3.5 mph NE5.6 kmh NE 6.9 mph11.1 kmh 29.88 in1011.9 mb - 0.00 in0.0 mm 0.00 in0.0 mm
11:50 PM 25.0°F-3.9°C 14.2°F-9.9°C 63% 5.8 mph NNE9.3 kmh NNE 3.5 mph5.6 kmh 29.88 in1011.9 mb - 0.00 in0.0 mm 0.00 in0.0 mm
11:55 PM 25.0°F-3.9°C 14.5°F-9.7°C 64% 4.6 mph NE7.4 kmh NE 8.1 mph13.0 kmh 29.88 in1011.9 mb - 0.00 in0.0 mm 0.00 in0.0 mm